createdAt,value
2018-08-18T00:00:25.083Z,100452.81
2018-08-18T00:02:54.031Z,100452.97
2018-08-18T00:05:23.163Z,100442.93
2018-08-18T00:07:52.067Z,100436.19
2018-08-18T00:10:22.240Z,100422.05
2018-08-18T00:12:51.385Z,100406.11
2018-08-18T00:15:20.333Z,100402.53
2018-08-18T00:17:49.300Z,100396.85
2018-08-18T00:20:20.110Z,100395.09
2018-08-18T00:22:49.067Z,100396.23
2018-08-18T00:25:18.038Z,100397.60
2018-08-18T00:27:46.983Z,100389.37
2018-08-18T00:30:21.286Z,100372.11
2018-08-18T00:32:50.234Z,100366.30
2018-08-18T00:35:19.205Z,100342.86
2018-08-18T00:37:48.152Z,100337.20
2018-08-18T00:40:17.125Z,100343.83
2018-08-18T00:42:46.076Z,100357.30
2018-08-18T00:45:15.020Z,100376.75
2018-08-18T00:47:43.965Z,100388.71
2018-08-18T00:50:17.320Z,100389.63
2018-08-18T00:52:46.337Z,100388.38
2018-08-18T00:55:15.497Z,100386.38
2018-08-18T00:57:44.480Z,100391.37
2018-08-18T01:00:13.449Z,100376.73
2018-08-18T01:02:42.471Z,100378.09
2018-08-18T01:05:11.425Z,100374.73
2018-08-18T01:07:40.392Z,100365.52
2018-08-18T01:10:09.366Z,100354.25
2018-08-18T01:12:38.455Z,100350.00
2018-08-18T01:15:08.329Z,100358.86
2018-08-18T01:17:37.308Z,100359.20
2018-08-18T01:20:06.761Z,100359.91
2018-08-18T01:22:35.660Z,100354.05
2018-08-18T01:25:05.208Z,100342.93
2018-08-18T01:27:43.243Z,100337.03
2018-08-18T01:30:12.207Z,100334.12
2018-08-18T01:32:41.161Z,100343.21
2018-08-18T01:35:10.768Z,100352.14
2018-08-18T01:37:39.702Z,100349.23
2018-08-18T01:40:08.684Z,100341.69
2018-08-18T01:42:37.788Z,100341.69
2018-08-18T01:45:06.800Z,100336.95
2018-08-18T01:47:35.748Z,100340.62
2018-08-18T01:50:10.317Z,100344.08
2018-08-18T01:52:39.229Z,100348.53
2018-08-18T01:55:08.624Z,100351.77
2018-08-18T01:57:37.680Z,100351.77
2018-08-18T02:00:20.826Z,100344.69
2018-08-18T02:02:49.778Z,100347.02
2018-08-18T02:05:19.379Z,100354.37
2018-08-18T02:07:48.285Z,100364.27
2018-08-18T02:10:17.220Z,100361.16
2018-08-18T02:12:57.631Z,100360.84
2018-08-18T02:15:26.597Z,100371.34
2018-08-18T02:17:55.616Z,100362.62
2018-08-18T02:20:24.579Z,100357.94
2018-08-18T02:22:53.513Z,100369.11
2018-08-18T02:25:22.515Z,100383.90
2018-08-18T02:27:51.485Z,100393.98
2018-08-18T02:30:21.270Z,100398.44
2018-08-18T02:32:50.169Z,100397.13
2018-08-18T02:35:19.127Z,100395.36
2018-08-18T02:37:48.053Z,100403.91
2018-08-18T02:40:17.975Z,100412.44
2018-08-18T02:42:46.884Z,100414.14
2018-08-18T02:45:16.483Z,100414.18
2018-08-18T02:47:45.401Z,100422.09
2018-08-18T02:50:14.953Z,100424.64
2018-08-18T02:52:43.946Z,100426.39
2018-08-18T02:55:13.104Z,100424.72
2018-08-18T02:57:43.899Z,100417.67
2018-08-18T03:00:23.779Z,100416.37
2018-08-18T03:02:52.724Z,100417.01
2018-08-18T03:05:21.662Z,100411.06
2018-08-18T03:07:51.662Z,100417.44
2018-08-18T03:10:22.674Z,100408.86
2018-08-18T03:12:53.117Z,100404.00
2018-08-18T03:15:34.992Z,100395.30
2018-08-18T03:18:03.916Z,100384.03
2018-08-18T03:20:32.859Z,100386.97
2018-08-18T03:23:01.801Z,100383.46
2018-08-18T03:25:42.311Z,100389.36
2018-08-18T03:28:11.285Z,100395.64
2018-08-18T03:30:40.245Z,100402.08
2018-08-18T03:33:09.176Z,100402.52
2018-08-18T03:35:38.150Z,100397.22
2018-08-18T03:38:07.121Z,100386.84
2018-08-18T03:40:36.054Z,100387.05
2018-08-18T03:43:05.213Z,100382.98
2018-08-18T03:45:35.390Z,100394.80
2018-08-18T03:48:04.516Z,100398.08
2018-08-18T03:50:46.269Z,100397.13
2018-08-18T03:53:17.248Z,100408.39
2018-08-18T03:55:46.213Z,100415.25
2018-08-18T03:58:15.200Z,100406.28
2018-08-18T04:00:44.190Z,100407.80
2018-08-18T04:03:13.118Z,100400.38
2018-08-18T04:05:42.072Z,100399.50
2018-08-18T04:08:11.021Z,100397.95
2018-08-18T04:10:39.988Z,100385.48
2018-08-18T04:13:08.910Z,100391.70
2018-08-18T04:15:37.880Z,100393.50
2018-08-18T04:18:11.200Z,100391.01
2018-08-18T04:20:40.157Z,100398.59
2018-08-18T04:23:09.093Z,100399.41
2018-08-18T04:25:38.037Z,100404.11
2018-08-18T04:28:06.998Z,100407.67
2018-08-18T04:30:35.952Z,100412.60
2018-08-18T04:33:04.974Z,100423.45
2018-08-18T04:35:34.372Z,100419.09
2018-08-18T04:38:03.863Z,100423.27
2018-08-18T04:40:35.103Z,100438.86
2018-08-18T04:43:04.055Z,100444.06
2018-08-18T04:45:32.999Z,100446.63
2018-08-18T04:48:01.951Z,100438.70
2018-08-18T04:50:30.986Z,100435.33
2018-08-18T04:53:00.146Z,100447.75
2018-08-18T04:55:29.167Z,100452.08
2018-08-18T04:57:58.122Z,100457.78
2018-08-18T05:00:28.089Z,100452.73
2018-08-18T05:02:57.802Z,100463.81
2018-08-18T05:05:28.140Z,100461.78
2018-08-18T05:07:58.370Z,100465.62
2018-08-18T05:10:27.473Z,100466.98
2018-08-18T05:12:56.432Z,100477.84
2018-08-18T05:15:25.400Z,100471.70
2018-08-18T05:17:54.388Z,100457.45
2018-08-18T05:20:28.884Z,100458.30
2018-08-18T05:23:16.484Z,100468.03
2018-08-18T05:25:45.417Z,100465.98
2018-08-18T05:28:14.340Z,100464.11
2018-08-18T05:30:43.504Z,100470.11
2018-08-18T05:33:12.437Z,100469.35
2018-08-18T05:35:41.753Z,100466.12
2018-08-18T05:38:11.881Z,100472.13
2018-08-18T05:40:40.821Z,100480.06
2018-08-18T05:43:09.773Z,100483.88
2018-08-18T05:45:38.715Z,100488.67
2018-08-18T05:48:07.679Z,100486.24
2018-08-18T05:50:36.595Z,100491.88
2018-08-18T05:53:14.652Z,100495.86
2018-08-18T05:55:43.625Z,100505.55
2018-08-18T05:58:13.120Z,100507.83
2018-08-18T06:00:42.072Z,100507.78
2018-08-18T06:03:11.137Z,100509.55
2018-08-18T06:05:40.092Z,100509.33
2018-08-18T06:08:09.019Z,100511.02
2018-08-18T06:10:38.019Z,100510.55
2018-08-18T06:13:12.457Z,100510.69
2018-08-18T06:15:42.249Z,100517.52
2018-08-18T06:18:11.264Z,100524.64
2018-08-18T06:20:40.211Z,100529.28
2018-08-18T06:23:09.176Z,100527.12
2018-08-18T06:25:38.143Z,100533.94
2018-08-18T06:28:07.088Z,100529.66
2018-08-18T06:30:36.073Z,100535.42
2018-08-18T06:33:04.990Z,100531.81
2018-08-18T06:35:33.932Z,100540.53
2018-08-18T06:38:02.874Z,100536.56
2018-08-18T06:40:31.868Z,100540.28
2018-08-18T06:43:00.809Z,100544.12
2018-08-18T06:45:29.762Z,100542.20
2018-08-18T06:48:15.060Z,100547.06
2018-08-18T06:50:44.005Z,100542.36
2018-08-18T06:53:12.969Z,100546.06
2018-08-18T06:55:42.026Z,100554.95
2018-08-18T06:58:11.066Z,100552.97
2018-08-18T07:00:40.032Z,100552.14
2018-08-18T07:03:41.496Z,100550.62
2018-08-18T07:06:12.127Z,100558.05
2018-08-18T07:08:46.526Z,100560.72
2018-08-18T07:11:15.520Z,100567.62
2018-08-18T07:13:45.467Z,100559.83
2018-08-18T07:16:14.427Z,100567.62
2018-08-18T07:18:43.376Z,100566.42
2018-08-18T07:21:13.087Z,100566.80
2018-08-18T07:23:42.063Z,100568.42
2018-08-18T07:26:11.020Z,100570.59
2018-08-18T07:28:40.075Z,100568.02
2018-08-18T07:31:09.001Z,100567.28
2018-08-18T07:33:37.927Z,100565.60
2018-08-18T07:36:06.914Z,100575.89
2018-08-18T07:38:35.901Z,100575.73
2018-08-18T07:41:04.900Z,100578.54
2018-08-18T07:43:34.911Z,100586.62
2018-08-18T07:46:05.552Z,100583.45
2018-08-18T07:48:34.553Z,100583.13
2018-08-18T07:51:03.756Z,100583.16
2018-08-18T07:53:32.742Z,100582.91
2018-08-18T07:56:01.732Z,100583.77
2018-08-18T07:58:30.949Z,100582.36
2018-08-18T08:01:00.511Z,100587.53
2018-08-18T08:03:29.495Z,100594.62
2018-08-18T08:05:58.410Z,100600.66
2018-08-18T08:08:33.884Z,100592.60
2018-08-18T08:11:07.019Z,100592.06
2018-08-18T08:13:35.956Z,100595.02
2018-08-18T08:16:04.881Z,100587.75
2018-08-18T08:18:33.817Z,100600.04
2018-08-18T08:21:02.793Z,100595.34
2018-08-18T08:23:31.809Z,100596.55
2018-08-18T08:26:00.831Z,100603.45
2018-08-18T08:28:29.894Z,100599.28
2018-08-18T08:30:59.092Z,100603.55
2018-08-18T08:33:35.708Z,100598.95
2018-08-18T08:36:08.926Z,100599.30
2018-08-18T08:38:50.356Z,100599.78
2018-08-18T08:41:19.307Z,100607.77
2018-08-18T08:43:48.336Z,100608.33
2018-08-18T08:46:17.296Z,100607.12
2018-08-18T08:48:51.546Z,100608.10
2018-08-18T08:51:20.899Z,100610.19
2018-08-18T08:53:49.863Z,100610.31
2018-08-18T08:56:23.853Z,100608.77
2018-08-18T08:58:52.843Z,100608.55
2018-08-18T09:01:22.278Z,100611.67
2018-08-18T09:03:51.213Z,100611.77
2018-08-18T09:06:20.139Z,100608.22
2018-08-18T09:08:51.616Z,100609.05
2018-08-18T09:11:20.545Z,100608.34
2018-08-18T09:13:59.954Z,100606.22
2018-08-18T09:16:30.873Z,100594.31
2018-08-18T09:18:59.855Z,100595.42
2018-08-18T09:21:31.947Z,100594.97
2018-08-18T09:24:00.922Z,100594.56
2018-08-18T09:26:29.918Z,100596.80
2018-08-18T09:28:58.856Z,100603.33
2018-08-18T09:31:29.706Z,100600.94
2018-08-18T09:33:58.957Z,100604.05
2018-08-18T09:36:27.886Z,100603.53
2018-08-18T09:38:56.825Z,100599.58
2018-08-18T09:41:26.013Z,100596.45
2018-08-18T09:43:54.956Z,100601.22
2018-08-18T09:46:23.992Z,100602.48
2018-08-18T09:48:52.891Z,100599.27
2018-08-18T09:51:21.831Z,100595.30
2018-08-18T09:53:50.770Z,100597.67
2018-08-18T09:56:19.786Z,100599.83
2018-08-18T09:58:48.742Z,100600.59
2018-08-18T10:01:17.701Z,100598.17
2018-08-18T10:03:46.701Z,100594.70
2018-08-18T10:06:15.827Z,100602.16
2018-08-18T10:08:44.742Z,100599.05
2018-08-18T10:11:13.688Z,100598.38
2018-08-18T10:13:42.664Z,100606.05
2018-08-18T10:16:11.576Z,100600.04
2018-08-18T10:18:44.721Z,100595.30
2018-08-18T10:21:13.676Z,100602.63
2018-08-18T10:23:42.627Z,100596.89
2018-08-18T10:26:11.924Z,100593.59
2018-08-18T10:28:41.330Z,100588.19
2018-08-18T10:31:10.745Z,100585.02
2018-08-18T10:33:39.746Z,100586.95
2018-08-18T10:36:08.744Z,100578.08
2018-08-18T10:38:37.688Z,100576.01
2018-08-18T10:41:07.007Z,100580.97
2018-08-18T10:43:35.956Z,100575.72
2018-08-18T10:46:04.916Z,100577.84
2018-08-18T10:48:34.050Z,100577.62
2018-08-18T10:51:25.800Z,100586.36
2018-08-18T10:53:55.068Z,100590.02
2018-08-18T10:56:24.456Z,100590.42
2018-08-18T10:59:11.952Z,100586.98
2018-08-18T11:02:14.005Z,100572.79
2018-08-18T11:04:43.005Z,100576.23
2018-08-18T11:07:11.980Z,100576.41
2018-08-18T11:09:40.980Z,100577.71
2018-08-18T11:12:10.716Z,100578.12
2018-08-18T11:14:40.012Z,100586.07
2018-08-18T11:17:08.932Z,100588.86
2018-08-18T11:19:37.883Z,100591.04
2018-08-18T11:22:18.372Z,100589.25
2018-08-18T11:24:47.315Z,100589.66
2018-08-18T11:27:16.225Z,100587.30
2018-08-18T11:29:45.284Z,100589.15
2018-08-18T11:32:14.197Z,100581.31
2018-08-18T11:34:43.164Z,100584.84
2018-08-18T11:37:12.096Z,100576.44
2018-08-18T11:39:41.074Z,100572.33
2018-08-18T11:42:09.993Z,100571.57
2018-08-18T11:44:38.940Z,100564.91
2018-08-18T11:47:07.987Z,100553.45
2018-08-18T11:49:36.890Z,100552.45
2018-08-18T11:52:06.128Z,100555.58
2018-08-18T11:54:35.063Z,100548.87
2018-08-18T11:57:04.006Z,100550.48
2018-08-18T11:59:33.274Z,100552.37
2018-08-18T12:02:02.295Z,100558.41
2018-08-18T12:04:31.176Z,100558.91
2018-08-18T12:07:00.130Z,100556.16
2018-08-18T12:09:29.281Z,100566.28
2018-08-18T12:11:58.262Z,100566.72
2018-08-18T12:14:27.218Z,100561.05
2018-08-18T12:16:56.172Z,100570.73
2018-08-18T12:19:25.205Z,100554.17
2018-08-18T12:21:54.621Z,100559.09
2018-08-18T12:24:23.562Z,100564.56
2018-08-18T12:27:05.853Z,100561.84
2018-08-18T12:29:34.921Z,100563.63
2018-08-18T12:32:04.742Z,100563.62
2018-08-18T12:34:33.669Z,100561.25
2018-08-18T12:37:02.636Z,100550.41
2018-08-18T12:39:31.538Z,100552.54
2018-08-18T12:42:00.513Z,100550.89
2018-08-18T12:44:35.260Z,100552.91
2018-08-18T12:47:04.269Z,100553.66
2018-08-18T12:49:33.311Z,100541.88
2018-08-18T12:52:02.266Z,100537.89
2018-08-18T12:54:31.230Z,100535.59
2018-08-18T12:57:00.176Z,100531.45
2018-08-18T12:59:29.113Z,100533.75
2018-08-18T13:01:58.069Z,100531.95
2018-08-18T13:04:27.097Z,100526.44
2018-08-18T13:06:55.998Z,100529.17
2018-08-18T13:09:28.544Z,100524.98
2018-08-18T13:12:00.155Z,100526.14
2018-08-18T13:14:30.443Z,100524.38
2018-08-18T13:16:59.360Z,100526.14
2018-08-18T13:19:30.744Z,100520.84
2018-08-18T13:21:59.769Z,100511.19
2018-08-18T13:24:30.105Z,100509.09
2018-08-18T13:26:59.628Z,100507.13
2018-08-18T13:29:28.704Z,100506.19
2018-08-18T13:31:57.740Z,100508.70
2018-08-18T13:34:26.776Z,100510.15
2018-08-18T13:36:55.771Z,100515.14
2018-08-18T13:39:24.826Z,100506.20
2018-08-18T13:41:53.713Z,100510.19
2018-08-18T13:44:35.934Z,100511.52
2018-08-18T13:47:04.957Z,100500.42
2018-08-18T13:49:33.918Z,100509.59
2018-08-18T13:52:02.868Z,100501.07
2018-08-18T13:54:33.423Z,100494.69
2018-08-18T13:57:02.358Z,100494.16
2018-08-18T13:59:39.141Z,100491.61
2018-08-18T14:02:08.856Z,100488.92
2018-08-18T14:04:40.160Z,100496.53
2018-08-18T14:07:09.547Z,100484.78
2018-08-18T14:09:39.702Z,100481.05
2018-08-18T14:12:13.780Z,100479.44
2018-08-18T14:14:42.732Z,100480.30
2018-08-18T14:17:12.043Z,100477.87
2018-08-18T14:19:40.964Z,100479.70
2018-08-18T14:22:10.702Z,100474.73
2018-08-18T14:24:40.646Z,100476.16
2018-08-18T14:27:13.893Z,100467.05
2018-08-18T14:29:42.950Z,100461.95
2018-08-18T14:32:42.870Z,100457.92
2018-08-18T14:35:11.805Z,100458.83
2018-08-18T14:37:42.449Z,100462.70
2018-08-18T14:40:15.008Z,100450.31
2018-08-18T14:42:44.540Z,100445.89
2018-08-18T14:45:15.480Z,100450.73
2018-08-18T14:47:44.841Z,100449.66
2018-08-18T14:50:31.076Z,100456.55
2018-08-18T14:53:00.082Z,100447.37
2018-08-18T14:55:29.020Z,100444.44
2018-08-18T14:58:00.803Z,100442.53
2018-08-18T15:00:29.848Z,100440.67
2018-08-18T15:02:58.825Z,100447.01
2018-08-18T15:05:27.784Z,100446.95
2018-08-18T15:07:58.533Z,100445.92
2018-08-18T15:10:39.610Z,100443.46
2018-08-18T15:13:09.200Z,100445.45
2018-08-18T15:15:38.310Z,100440.23
2018-08-18T15:18:11.239Z,100437.14
2018-08-18T15:20:40.933Z,100437.16
2018-08-18T15:23:10.717Z,100428.55
2018-08-18T15:25:41.205Z,100433.42
2018-08-18T15:28:11.248Z,100438.33
2018-08-18T15:30:41.406Z,100430.83
2018-08-18T15:33:11.335Z,100436.36
2018-08-18T15:35:40.970Z,100433.59
2018-08-18T15:38:10.485Z,100435.51
2018-08-18T15:40:39.620Z,100431.95
2018-08-18T15:43:08.582Z,100438.86
2018-08-18T15:45:47.697Z,100434.67
2018-08-18T15:48:16.749Z,100437.05
2018-08-18T15:50:45.705Z,100435.21
2018-08-18T15:53:14.657Z,100431.43
2018-08-18T15:55:43.602Z,100435.71
2018-08-18T15:58:12.593Z,100438.48
2018-08-18T16:00:41.546Z,100441.38
2018-08-18T16:03:10.825Z,100436.05
2018-08-18T16:05:39.881Z,100437.64
2018-08-18T16:08:08.825Z,100433.67
2018-08-18T16:10:37.796Z,100432.97
2018-08-18T16:13:06.751Z,100437.75
2018-08-18T16:15:35.730Z,100435.77
2018-08-18T16:18:04.648Z,100435.62
2018-08-18T16:20:33.653Z,100432.27
2018-08-18T16:23:03.696Z,100436.55
2018-08-18T16:25:35.575Z,100434.03
2018-08-18T16:28:05.446Z,100427.66
2018-08-18T16:30:34.905Z,100424.63
2018-08-18T16:33:14.805Z,100433.10
2018-08-18T16:35:44.725Z,100431.17
2018-08-18T16:38:13.666Z,100428.82
2018-08-18T16:40:42.728Z,100432.16
2018-08-18T16:43:13.795Z,100428.22
2018-08-18T16:45:42.777Z,100430.35
2018-08-18T16:48:12.890Z,100434.08
2018-08-18T16:50:42.483Z,100430.91
2018-08-18T16:53:12.511Z,100429.27
2018-08-18T16:55:43.636Z,100434.78
2018-08-18T16:58:12.617Z,100432.38
2018-08-18T17:00:57.717Z,100433.56
2018-08-18T17:03:32.232Z,100437.19
2018-08-18T17:06:02.192Z,100439.28
2018-08-18T17:08:31.545Z,100442.70
2018-08-18T17:11:00.700Z,100445.60
2018-08-18T17:13:32.088Z,100446.70
2018-08-18T17:16:01.128Z,100449.09
2018-08-18T17:18:30.070Z,100448.31
2018-08-18T17:21:00.304Z,100455.73
2018-08-18T17:23:30.997Z,100455.22
2018-08-18T17:25:59.977Z,100454.28
2018-08-18T17:28:29.740Z,100453.17
2018-08-18T17:31:03.552Z,100458.19
2018-08-18T17:33:32.851Z,100456.75
2018-08-18T17:36:01.907Z,100461.61
2018-08-18T17:38:30.844Z,100460.58
2018-08-18T17:40:59.812Z,100460.81
2018-08-18T17:43:28.798Z,100465.33
2018-08-18T17:45:58.949Z,100471.69
2018-08-18T17:48:29.004Z,100476.98
2018-08-18T17:50:57.974Z,100468.03
2018-08-18T17:53:30.523Z,100480.13
2018-08-18T17:56:09.634Z,100484.77
2018-08-18T17:58:38.790Z,100480.65
2018-08-18T18:01:08.094Z,100489.92
2018-08-18T18:03:37.093Z,100484.48
2018-08-18T18:06:06.225Z,100490.76
2018-08-18T18:08:35.199Z,100493.47
2018-08-18T18:11:04.335Z,100500.43
2018-08-18T18:13:34.752Z,100506.02
2018-08-18T18:16:09.588Z,100505.20
2018-08-18T18:18:43.894Z,100504.89
2018-08-18T18:21:12.800Z,100494.59
2018-08-18T18:23:43.085Z,100501.59
2018-08-18T18:26:12.041Z,100507.22
2018-08-18T18:28:40.964Z,100508.67
2018-08-18T18:31:09.926Z,100515.50
2018-08-18T18:33:38.921Z,100520.96
2018-08-18T18:36:07.818Z,100517.63
2018-08-18T18:38:52.783Z,100521.84
2018-08-18T18:41:22.236Z,100521.68
2018-08-18T18:43:58.021Z,100526.58
2018-08-18T18:46:27.144Z,100522.52
2018-08-18T18:48:56.437Z,100526.00
2018-08-18T18:51:25.507Z,100526.73
2018-08-18T18:53:56.464Z,100527.16
2018-08-18T18:56:25.456Z,100536.99
2018-08-18T18:58:54.396Z,100537.38
2018-08-18T19:01:23.501Z,100539.93
2018-08-18T19:03:52.444Z,100540.39
2018-08-18T19:06:21.427Z,100543.85
2018-08-18T19:08:57.208Z,100547.88
2018-08-18T19:11:27.197Z,100551.63
2018-08-18T19:13:56.239Z,100557.09
2018-08-18T19:16:25.459Z,100557.00
2018-08-18T19:18:54.478Z,100557.50
2018-08-18T19:21:29.692Z,100552.84
2018-08-18T19:23:58.615Z,100557.39
2018-08-18T19:26:37.561Z,100557.30
2018-08-18T19:29:06.472Z,100558.91
2018-08-18T19:31:35.772Z,100559.73
2018-08-18T19:34:11.604Z,100567.00
2018-08-18T19:36:55.262Z,100561.66
2018-08-18T19:39:26.187Z,100562.23
2018-08-18T19:42:18.778Z,100562.47
2018-08-18T19:44:50.197Z,100559.28
2018-08-18T19:47:36.328Z,100563.61
2018-08-18T19:50:06.308Z,100572.13
2018-08-18T19:52:35.292Z,100568.13
2018-08-18T19:55:04.531Z,100567.45
2018-08-18T19:57:36.461Z,100579.25
2018-08-18T20:00:13.758Z,100577.78
2018-08-18T20:02:52.167Z,100575.62
2018-08-18T20:05:22.198Z,100576.86
2018-08-18T20:07:51.480Z,100576.75
2018-08-18T20:10:20.675Z,100578.23
2018-08-18T20:12:49.616Z,100582.66
2018-08-18T20:15:18.555Z,100591.06
2018-08-18T20:17:47.561Z,100581.06
2018-08-18T20:20:19.468Z,100587.06
2018-08-18T20:22:48.400Z,100586.03
2018-08-18T20:25:17.351Z,100585.70
2018-08-18T20:27:46.332Z,100588.67
2018-08-18T20:30:15.812Z,100591.84
2018-08-18T20:32:45.031Z,100595.14
2018-08-18T20:35:13.995Z,100604.45
2018-08-18T20:37:42.895Z,100602.17
2018-08-18T20:40:11.865Z,100604.86
2018-08-18T20:42:41.858Z,100606.56
2018-08-18T20:45:11.627Z,100600.07
2018-08-18T20:47:42.168Z,100603.80
2018-08-18T20:50:11.793Z,100610.61
2018-08-18T20:52:41.068Z,100601.87
2018-08-18T20:55:10.257Z,100610.04
2018-08-18T20:57:39.240Z,100614.45
2018-08-18T21:00:09.873Z,100614.27
2018-08-18T21:02:38.753Z,100613.23
2018-08-18T21:05:09.297Z,100614.66
2018-08-18T21:07:38.276Z,100617.95
2018-08-18T21:10:09.530Z,100611.78
2018-08-18T21:12:43.914Z,100616.44
2018-08-18T21:15:13.176Z,100624.81
2018-08-18T21:17:42.113Z,100623.45
2018-08-18T21:20:15.989Z,100619.84
2018-08-18T21:22:44.912Z,100618.73
2018-08-18T21:25:14.464Z,100616.32
2018-08-18T21:27:43.378Z,100624.56
2018-08-18T21:30:14.196Z,100623.24
2018-08-18T21:32:43.105Z,100618.22
2018-08-18T21:35:12.160Z,100621.98
2018-08-18T21:37:41.230Z,100624.70
2018-08-18T21:40:10.686Z,100621.16
2018-08-18T21:42:39.592Z,100625.60
2018-08-18T21:45:10.544Z,100626.07
2018-08-18T21:47:39.482Z,100629.89
2018-08-18T21:50:08.445Z,100626.80
2018-08-18T21:52:38.354Z,100628.58
2018-08-18T21:55:07.271Z,100627.79
2018-08-18T21:57:52.194Z,100632.75
2018-08-18T22:00:21.274Z,100631.91
2018-08-18T22:02:50.216Z,100642.16
2018-08-18T22:05:19.218Z,100637.43
2018-08-18T22:07:51.877Z,100630.41
2018-08-18T22:10:21.292Z,100633.35
2018-08-18T22:12:50.212Z,100634.27
2018-08-18T22:15:20.058Z,100632.09
2018-08-18T22:17:51.175Z,100629.56
2018-08-18T22:20:21.319Z,100633.20
2018-08-18T22:22:50.299Z,100625.08
2018-08-18T22:25:19.167Z,100623.30
2018-08-18T22:27:52.185Z,100626.44
2018-08-18T22:30:25.416Z,100619.77
2018-08-18T22:32:54.325Z,100617.48
2018-08-18T22:35:23.255Z,100616.45
2018-08-18T22:37:52.155Z,100621.03
2018-08-18T22:40:21.087Z,100618.20
2018-08-18T22:42:49.996Z,100617.55
2018-08-18T22:45:23.344Z,100627.72
2018-08-18T22:47:52.271Z,100626.84
2018-08-18T22:50:21.255Z,100619.00
2018-08-18T22:52:51.409Z,100619.79
2018-08-18T22:55:20.445Z,100625.41
2018-08-18T22:57:54.935Z,100631.98
2018-08-18T23:00:24.284Z,100629.83
2018-08-18T23:02:53.567Z,100630.46
2018-08-18T23:05:22.696Z,100625.69
2018-08-18T23:07:53.924Z,100632.80
2018-08-18T23:10:23.854Z,100627.13
2018-08-18T23:12:52.805Z,100630.73
2018-08-18T23:15:22.450Z,100635.12
2018-08-18T23:17:51.324Z,100636.73
2018-08-18T23:20:20.285Z,100639.16
2018-08-18T23:22:54.790Z,100635.17
2018-08-18T23:25:25.328Z,100639.17
2018-08-18T23:27:54.821Z,100633.08
2018-08-18T23:30:27.891Z,100637.63
2018-08-18T23:32:56.810Z,100640.78
2018-08-18T23:35:27.128Z,100640.30
2018-08-18T23:37:56.388Z,100642.45
2018-08-18T23:40:25.645Z,100640.31
2018-08-18T23:42:54.733Z,100637.11
2018-08-18T23:45:24.367Z,100633.38
2018-08-18T23:47:58.937Z,100633.78
2018-08-18T23:50:28.643Z,100639.04
2018-08-18T23:53:03.072Z,100634.00
2018-08-18T23:55:32.184Z,100632.98
2018-08-18T23:58:01.543Z,100636.10
